sensor_id;sensor_type;location;lat;lon;timestamp;temperature;humidity
23156;DHT22;11746;50.876;4.246;2022-11-27T00:01:29;8.40;99.90
23156;DHT22;11746;50.876;4.246;2022-11-27T00:03:57;8.50;99.90
23156;DHT22;11746;50.876;4.246;2022-11-27T00:06:26;8.50;99.90
23156;DHT22;11746;50.876;4.246;2022-11-27T00:08:55;8.40;99.90
23156;DHT22;11746;50.876;4.246;2022-11-27T00:11:22;8.40;99.90
23156;DHT22;11746;50.876;4.246;2022-11-27T00:13:49;8.40;99.90
23156;DHT22;11746;50.876;4.246;2022-11-27T00:16:16;8.40;99.90
23156;DHT22;11746;50.876;4.246;2022-11-27T00:18:44;8.40;99.90
23156;DHT22;11746;50.876;4.246;2022-11-27T00:21:13;8.30;99.90
23156;DHT22;11746;50.876;4.246;2022-11-27T00:23:40;8.40;99.90
23156;DHT22;11746;50.876;4.246;2022-11-27T00:26:09;8.30;99.90
23156;DHT22;11746;50.876;4.246;2022-11-27T00:28:36;8.30;99.90
23156;DHT22;11746;50.876;4.246;2022-11-27T00:31:15;8.30;99.90
23156;DHT22;11746;50.876;4.246;2022-11-27T00:33:41;8.40;99.90
23156;DHT22;11746;50.876;4.246;2022-11-27T00:36:07;8.40;99.90
23156;DHT22;11746;50.876;4.246;2022-11-27T00:38:34;8.30;99.90
23156;DHT22;11746;50.876;4.246;2022-11-27T00:43:33;8.30;99.90
23156;DHT22;11746;50.876;4.246;2022-11-27T00:45:59;8.30;99.90
23156;DHT22;11746;50.876;4.246;2022-11-27T00:48:24;8.30;99.90
23156;DHT22;11746;50.876;4.246;2022-11-27T00:50:50;8.30;99.90
23156;DHT22;11746;50.876;4.246;2022-11-27T00:53:16;8.30;99.90
23156;DHT22;11746;50.876;4.246;2022-11-27T00:55:45;8.20;99.90
23156;DHT22;11746;50.876;4.246;2022-11-27T00:58:11;8.30;99.90
23156;DHT22;11746;50.876;4.246;2022-11-27T01:00:36;8.30;99.90
23156;DHT22;11746;50.876;4.246;2022-11-27T01:03:02;8.30;99.90
23156;DHT22;11746;50.876;4.246;2022-11-27T01:05:28;8.30;99.90
23156;DHT22;11746;50.876;4.246;2022-11-27T01:07:53;8.30;99.90
23156;DHT22;11746;50.876;4.246;2022-11-27T01:10:19;8.30;99.90
23156;DHT22;11746;50.876;4.246;2022-11-27T01:12:48;8.30;99.90
23156;DHT22;11746;50.876;4.246;2022-11-27T01:15:14;8.30;99.90
23156;DHT22;11746;50.876;4.246;2022-11-27T01:17:42;8.30;99.90
23156;DHT22;11746;50.876;4.246;2022-11-27T01:20:08;8.50;99.90
23156;DHT22;11746;50.876;4.246;2022-11-27T01:22:37;8.40;99.90
23156;DHT22;11746;50.876;4.246;2022-11-27T01:25:03;8.40;99.90
23156;DHT22;11746;50.876;4.246;2022-11-27T01:27:33;8.30;99.90
23156;DHT22;11746;50.876;4.246;2022-11-27T01:29:59;8.30;99.90
23156;DHT22;11746;50.876;4.246;2022-11-27T01:32:25;8.30;99.90
23156;DHT22;11746;50.876;4.246;2022-11-27T01:34:54;8.30;99.90
23156;DHT22;11746;50.876;4.246;2022-11-27T01:37:20;8.30;99.90
23156;DHT22;11746;50.876;4.246;2022-11-27T01:39:48;8.30;99.90
23156;DHT22;11746;50.876;4.246;2022-11-27T01:42:13;8.30;99.90
23156;DHT22;11746;50.876;4.246;2022-11-27T01:44:49;8.30;99.90
23156;DHT22;11746;50.876;4.246;2022-11-27T01:47:24;8.40;99.90
23156;DHT22;11746;50.876;4.246;2022-11-27T01:49:55;8.30;99.90
23156;DHT22;11746;50.876;4.246;2022-11-27T01:52:27;8.30;99.90
23156;DHT22;11746;50.876;4.246;2022-11-27T01:55:11;8.40;99.90
23156;DHT22;11746;50.876;4.246;2022-11-27T01:57:44;8.30;99.90
23156;DHT22;11746;50.876;4.246;2022-11-27T02:00:12;8.30;99.90
23156;DHT22;11746;50.876;4.246;2022-11-27T02:02:40;8.30;99.90
23156;DHT22;11746;50.876;4.246;2022-11-27T02:05:07;8.30;99.90
23156;DHT22;11746;50.876;4.246;2022-11-27T02:07:34;8.20;99.90
23156;DHT22;11746;50.876;4.246;2022-11-27T02:10:00;8.10;99.90
23156;DHT22;11746;50.876;4.246;2022-11-27T02:12:50;8.20;99.90
23156;DHT22;11746;50.876;4.246;2022-11-27T02:15:31;8.20;99.90
23156;DHT22;11746;50.876;4.246;2022-11-27T02:20:48;8.20;99.90
23156;DHT22;11746;50.876;4.246;2022-11-27T02:29:03;8.20;99.90
23156;DHT22;11746;50.876;4.246;2022-11-27T02:31:40;8.20;99.90
23156;DHT22;11746;50.876;4.246;2022-11-27T02:36:54;8.30;99.90
23156;DHT22;11746;50.876;4.246;2022-11-27T02:39:50;8.30;99.90
23156;DHT22;11746;50.876;4.246;2022-11-27T02:42:18;8.30;99.90
23156;DHT22;11746;50.876;4.246;2022-11-27T02:45:04;8.30;99.90
23156;DHT22;11746;50.876;4.246;2022-11-27T02:47:31;8.20;99.90
23156;DHT22;11746;50.876;4.246;2022-11-27T02:49:58;8.20;99.90
23156;DHT22;11746;50.876;4.246;2022-11-27T02:52:25;8.10;99.90
23156;DHT22;11746;50.876;4.246;2022-11-27T02:54:56;8.10;99.90
23156;DHT22;11746;50.876;4.246;2022-11-27T02:57:25;8.10;99.90
23156;DHT22;11746;50.876;4.246;2022-11-27T02:59:55;8.10;99.90
23156;DHT22;11746;50.876;4.246;2022-11-27T03:02:28;8.20;99.90
23156;DHT22;11746;50.876;4.246;2022-11-27T03:04:56;8.10;99.90
23156;DHT22;11746;50.876;4.246;2022-11-27T03:07:36;8.20;99.90
23156;DHT22;11746;50.876;4.246;2022-11-27T03:10:12;8.10;99.90
23156;DHT22;11746;50.876;4.246;2022-11-27T03:12:39;8.20;99.90
23156;DHT22;11746;50.876;4.246;2022-11-27T03:15:05;8.20;99.90
23156;DHT22;11746;50.876;4.246;2022-11-27T03:20:29;8.20;99.90
23156;DHT22;11746;50.876;4.246;2022-11-27T03:22:57;8.20;99.90
23156;DHT22;11746;50.876;4.246;2022-11-27T03:25:25;8.20;99.90
23156;DHT22;11746;50.876;4.246;2022-11-27T03:27:58;8.20;99.90
23156;DHT22;11746;50.876;4.246;2022-11-27T03:30:26;8.20;99.90
23156;DHT22;11746;50.876;4.246;2022-11-27T03:32:54;8.20;99.90
23156;DHT22;11746;50.876;4.246;2022-11-27T03:35:23;8.10;99.90
23156;DHT22;11746;50.876;4.246;2022-11-27T03:37:49;8.10;99.90
23156;DHT22;11746;50.876;4.246;2022-11-27T03:40:18;8.10;99.90
23156;DHT22;11746;50.876;4.246;2022-11-27T03:43:02;8.10;99.90
23156;DHT22;11746;50.876;4.246;2022-11-27T03:48:19;8.20;99.90
23156;DHT22;11746;50.876;4.246;2022-11-27T03:59:19;8.20;99.90
23156;DHT22;11746;50.876;4.246;2022-11-27T04:01:47;8.20;99.90
23156;DHT22;11746;50.876;4.246;2022-11-27T04:04:16;8.20;99.90
23156;DHT22;11746;50.876;4.246;2022-11-27T04:06:42;8.20;99.90
23156;DHT22;11746;50.876;4.246;2022-11-27T04:09:08;8.20;99.90
23156;DHT22;11746;50.876;4.246;2022-11-27T04:11:34;8.20;99.90
23156;DHT22;11746;50.876;4.246;2022-11-27T04:13:59;8.20;99.90
23156;DHT22;11746;50.876;4.246;2022-11-27T04:16:25;8.20;99.90
23156;DHT22;11746;50.876;4.246;2022-11-27T04:18:51;8.20;99.90
23156;DHT22;11746;50.876;4.246;2022-11-27T04:21:16;8.10;99.90
23156;DHT22;11746;50.876;4.246;2022-11-27T04:23:43;8.20;99.90
23156;DHT22;11746;50.876;4.246;2022-11-27T04:26:12;8.10;99.90
23156;DHT22;11746;50.876;4.246;2022-11-27T04:28:38;8.10;99.90
23156;DHT22;11746;50.876;4.246;2022-11-27T04:31:04;8.20;99.90
23156;DHT22;11746;50.876;4.246;2022-11-27T04:33:30;8.20;99.90
23156;DHT22;11746;50.876;4.246;2022-11-27T04:35:58;8.10;99.90
23156;DHT22;11746;50.876;4.246;2022-11-27T04:38:24;8.20;99.90
23156;DHT22;11746;50.876;4.246;2022-11-27T04:40:51;8.20;99.90
23156;DHT22;11746;50.876;4.246;2022-11-27T04:43:19;8.10;99.90
23156;DHT22;11746;50.876;4.246;2022-11-27T04:45:48;8.10;99.90
23156;DHT22;11746;50.876;4.246;2022-11-27T04:48:14;8.10;99.90
23156;DHT22;11746;50.876;4.246;2022-11-27T04:50:40;8.00;99.90
23156;DHT22;11746;50.876;4.246;2022-11-27T04:53:05;8.00;99.90
23156;DHT22;11746;50.876;4.246;2022-11-27T04:55:31;8.00;99.90
23156;DHT22;11746;50.876;4.246;2022-11-27T04:57:57;8.10;99.90
23156;DHT22;11746;50.876;4.246;2022-11-27T05:00:23;8.00;99.90
23156;DHT22;11746;50.876;4.246;2022-11-27T05:02:48;8.10;99.90
23156;DHT22;11746;50.876;4.246;2022-11-27T05:05:14;8.10;99.90
23156;DHT22;11746;50.876;4.246;2022-11-27T05:07:41;7.90;99.90
23156;DHT22;11746;50.876;4.246;2022-11-27T05:10:08;7.80;99.90
23156;DHT22;11746;50.876;4.246;2022-11-27T05:12:33;7.80;99.90
23156;DHT22;11746;50.876;4.246;2022-11-27T05:15:01;7.80;99.90
23156;DHT22;11746;50.876;4.246;2022-11-27T05:17:30;7.80;99.90
23156;DHT22;11746;50.876;4.246;2022-11-27T05:19:56;8.00;99.90
23156;DHT22;11746;50.876;4.246;2022-11-27T05:22:24;8.10;99.90
23156;DHT22;11746;50.876;4.246;2022-11-27T05:24:54;8.10;99.90
23156;DHT22;11746;50.876;4.246;2022-11-27T05:27:20;8.20;99.90
23156;DHT22;11746;50.876;4.246;2022-11-27T05:29:48;8.10;99.90
23156;DHT22;11746;50.876;4.246;2022-11-27T05:32:14;8.00;99.90
23156;DHT22;11746;50.876;4.246;2022-11-27T05:34:40;7.90;99.90
23156;DHT22;11746;50.876;4.246;2022-11-27T05:37:06;7.80;99.90
23156;DHT22;11746;50.876;4.246;2022-11-27T05:39:32;7.80;99.90
23156;DHT22;11746;50.876;4.246;2022-11-27T05:42:00;7.80;99.90
23156;DHT22;11746;50.876;4.246;2022-11-27T05:44:28;7.80;99.90
23156;DHT22;11746;50.876;4.246;2022-11-27T05:46:54;7.80;99.90
23156;DHT22;11746;50.876;4.246;2022-11-27T05:49:21;7.80;99.90
23156;DHT22;11746;50.876;4.246;2022-11-27T05:51:47;7.90;99.90
23156;DHT22;11746;50.876;4.246;2022-11-27T05:54:15;7.80;99.90
23156;DHT22;11746;50.876;4.246;2022-11-27T05:56:43;7.90;99.90
23156;DHT22;11746;50.876;4.246;2022-11-27T05:59:11;7.90;99.90
23156;DHT22;11746;50.876;4.246;2022-11-27T06:01:37;8.00;99.90
23156;DHT22;11746;50.876;4.246;2022-11-27T06:04:03;8.00;99.90
23156;DHT22;11746;50.876;4.246;2022-11-27T06:06:29;7.90;99.90
23156;DHT22;11746;50.876;4.246;2022-11-27T06:08:54;7.90;99.90
23156;DHT22;11746;50.876;4.246;2022-11-27T06:11:21;7.90;99.90
23156;DHT22;11746;50.876;4.246;2022-11-27T06:13:48;7.90;99.90
23156;DHT22;11746;50.876;4.246;2022-11-27T06:16:20;8.00;99.90
23156;DHT22;11746;50.876;4.246;2022-11-27T06:18:53;8.00;99.90
23156;DHT22;11746;50.876;4.246;2022-11-27T06:21:21;7.90;99.90
23156;DHT22;11746;50.876;4.246;2022-11-27T06:23:47;8.00;99.90
23156;DHT22;11746;50.876;4.246;2022-11-27T06:26:21;8.00;99.90
23156;DHT22;11746;50.876;4.246;2022-11-27T06:28:48;8.00;99.90
23156;DHT22;11746;50.876;4.246;2022-11-27T06:31:24;8.00;99.90
23156;DHT22;11746;50.876;4.246;2022-11-27T06:33:51;7.90;99.90
23156;DHT22;11746;50.876;4.246;2022-11-27T06:36:18;8.00;99.90
23156;DHT22;11746;50.876;4.246;2022-11-27T06:38:45;8.00;99.90
23156;DHT22;11746;50.876;4.246;2022-11-27T06:41:22;8.00;99.90
23156;DHT22;11746;50.876;4.246;2022-11-27T06:43:52;8.00;99.90
23156;DHT22;11746;50.876;4.246;2022-11-27T06:46:20;8.10;99.90
23156;DHT22;11746;50.876;4.246;2022-11-27T06:48:47;8.10;99.90
23156;DHT22;11746;50.876;4.246;2022-11-27T06:51:16;8.10;99.90
23156;DHT22;11746;50.876;4.246;2022-11-27T06:53:43;8.20;99.90
23156;DHT22;11746;50.876;4.246;2022-11-27T06:56:11;8.10;99.90
23156;DHT22;11746;50.876;4.246;2022-11-27T06:58:37;8.10;99.90
23156;DHT22;11746;50.876;4.246;2022-11-27T07:01:07;8.20;99.90
23156;DHT22;11746;50.876;4.246;2022-11-27T07:03:33;8.20;99.90
23156;DHT22;11746;50.876;4.246;2022-11-27T07:06:00;8.20;99.90
23156;DHT22;11746;50.876;4.246;2022-11-27T07:08:26;8.20;99.90
23156;DHT22;11746;50.876;4.246;2022-11-27T07:10:51;8.20;99.90
23156;DHT22;11746;50.876;4.246;2022-11-27T07:13:17;8.20;99.90
23156;DHT22;11746;50.876;4.246;2022-11-27T07:15:43;8.20;99.90
23156;DHT22;11746;50.876;4.246;2022-11-27T07:18:09;8.10;99.90
23156;DHT22;11746;50.876;4.246;2022-11-27T07:20:35;8.20;99.90
23156;DHT22;11746;50.876;4.246;2022-11-27T07:23:02;8.10;99.90
23156;DHT22;11746;50.876;4.246;2022-11-27T07:25:27;8.20;99.90
23156;DHT22;11746;50.876;4.246;2022-11-27T07:27:54;8.20;99.90
23156;DHT22;11746;50.876;4.246;2022-11-27T07:30:20;8.30;99.90
23156;DHT22;11746;50.876;4.246;2022-11-27T07:32:49;8.20;99.90
23156;DHT22;11746;50.876;4.246;2022-11-27T07:35:15;8.30;99.90
23156;DHT22;11746;50.876;4.246;2022-11-27T07:37:40;8.30;99.90
23156;DHT22;11746;50.876;4.246;2022-11-27T07:40:06;8.40;99.90
23156;DHT22;11746;50.876;4.246;2022-11-27T07:42:33;8.30;99.90
23156;DHT22;11746;50.876;4.246;2022-11-27T07:44:59;8.40;99.90
23156;DHT22;11746;50.876;4.246;2022-11-27T07:47:25;8.20;99.90
23156;DHT22;11746;50.876;4.246;2022-11-27T07:49:51;8.20;99.90
23156;DHT22;11746;50.876;4.246;2022-11-27T07:52:19;8.30;99.90
23156;DHT22;11746;50.876;4.246;2022-11-27T07:54:48;8.20;99.90
23156;DHT22;11746;50.876;4.246;2022-11-27T07:57:14;8.30;99.90
23156;DHT22;11746;50.876;4.246;2022-11-27T07:59:42;8.00;99.90
23156;DHT22;11746;50.876;4.246;2022-11-27T08:02:12;8.00;99.90
23156;DHT22;11746;50.876;4.246;2022-11-27T08:04:41;8.10;99.90
23156;DHT22;11746;50.876;4.246;2022-11-27T08:07:06;8.10;99.90
23156;DHT22;11746;50.876;4.246;2022-11-27T08:09:34;8.00;99.90
23156;DHT22;11746;50.876;4.246;2022-11-27T08:12:00;8.10;99.90
23156;DHT22;11746;50.876;4.246;2022-11-27T08:14:28;8.10;99.90
23156;DHT22;11746;50.876;4.246;2022-11-27T08:16:54;8.10;99.90
23156;DHT22;11746;50.876;4.246;2022-11-27T08:19:20;8.00;99.90
23156;DHT22;11746;50.876;4.246;2022-11-27T08:21:50;8.10;99.90
23156;DHT22;11746;50.876;4.246;2022-11-27T08:24:16;8.20;99.90
23156;DHT22;11746;50.876;4.246;2022-11-27T08:26:42;8.10;99.90
23156;DHT22;11746;50.876;4.246;2022-11-27T08:29:10;8.10;99.90
23156;DHT22;11746;50.876;4.246;2022-11-27T08:31:37;8.00;99.90
23156;DHT22;11746;50.876;4.246;2022-11-27T08:34:03;8.00;99.90
23156;DHT22;11746;50.876;4.246;2022-11-27T08:36:30;7.90;99.90
23156;DHT22;11746;50.876;4.246;2022-11-27T08:38:56;8.00;99.90
23156;DHT22;11746;50.876;4.246;2022-11-27T08:41:24;8.00;99.90
23156;DHT22;11746;50.876;4.246;2022-11-27T08:43:50;8.10;99.90
23156;DHT22;11746;50.876;4.246;2022-11-27T08:46:16;8.10;99.90
23156;DHT22;11746;50.876;4.246;2022-11-27T08:48:42;8.10;99.90
23156;DHT22;11746;50.876;4.246;2022-11-27T08:51:11;8.10;99.90
23156;DHT22;11746;50.876;4.246;2022-11-27T08:53:40;8.10;99.90
23156;DHT22;11746;50.876;4.246;2022-11-27T08:58:37;8.00;99.90
23156;DHT22;11746;50.876;4.246;2022-11-27T09:01:16;8.10;99.90
23156;DHT22;11746;50.876;4.246;2022-11-27T09:03:42;8.10;99.90
23156;DHT22;11746;50.876;4.246;2022-11-27T09:06:12;8.10;99.90
23156;DHT22;11746;50.876;4.246;2022-11-27T09:08:42;8.10;99.90
23156;DHT22;11746;50.876;4.246;2022-11-27T09:11:12;8.00;99.90
23156;DHT22;11746;50.876;4.246;2022-11-27T09:13:38;8.00;99.90
23156;DHT22;11746;50.876;4.246;2022-11-27T09:16:06;8.00;99.90
23156;DHT22;11746;50.876;4.246;2022-11-27T09:18:33;8.00;99.90
23156;DHT22;11746;50.876;4.246;2022-11-27T09:21:05;8.10;99.90
23156;DHT22;11746;50.876;4.246;2022-11-27T09:23:31;8.00;99.90
23156;DHT22;11746;50.876;4.246;2022-11-27T09:26:02;8.00;99.90
23156;DHT22;11746;50.876;4.246;2022-11-27T09:28:29;8.00;99.90
23156;DHT22;11746;50.876;4.246;2022-11-27T09:30:56;8.00;99.90
23156;DHT22;11746;50.876;4.246;2022-11-27T09:33:27;8.10;99.90
23156;DHT22;11746;50.876;4.246;2022-11-27T09:35:54;8.20;99.90
23156;DHT22;11746;50.876;4.246;2022-11-27T09:38:20;8.20;99.90
23156;DHT22;11746;50.876;4.246;2022-11-27T09:40:52;8.20;99.90
23156;DHT22;11746;50.876;4.246;2022-11-27T09:43:27;8.20;99.90
23156;DHT22;11746;50.876;4.246;2022-11-27T09:45:59;8.20;99.90
23156;DHT22;11746;50.876;4.246;2022-11-27T09:48:36;8.10;99.90
23156;DHT22;11746;50.876;4.246;2022-11-27T09:51:33;8.20;99.90
23156;DHT22;11746;50.876;4.246;2022-11-27T09:54:14;8.20;99.90
23156;DHT22;11746;50.876;4.246;2022-11-27T09:56:42;8.20;99.90
23156;DHT22;11746;50.876;4.246;2022-11-27T09:59:21;8.20;99.90
23156;DHT22;11746;50.876;4.246;2022-11-27T10:01:50;8.20;99.90
23156;DHT22;11746;50.876;4.246;2022-11-27T10:04:17;8.20;99.90
23156;DHT22;11746;50.876;4.246;2022-11-27T10:06:53;8.20;99.90
23156;DHT22;11746;50.876;4.246;2022-11-27T10:09:45;8.20;99.90
23156;DHT22;11746;50.876;4.246;2022-11-27T10:15:24;8.20;99.90
23156;DHT22;11746;50.876;4.246;2022-11-27T10:17:58;8.20;99.90
23156;DHT22;11746;50.876;4.246;2022-11-27T10:20:39;8.20;99.90
23156;DHT22;11746;50.876;4.246;2022-11-27T10:26:08;8.50;99.90
23156;DHT22;11746;50.876;4.246;2022-11-27T10:31:35;8.40;99.90
23156;DHT22;11746;50.876;4.246;2022-11-27T10:34:24;8.50;99.90
23156;DHT22;11746;50.876;4.246;2022-11-27T10:36:52;8.40;99.90
23156;DHT22;11746;50.876;4.246;2022-11-27T10:39:31;8.50;99.90
23156;DHT22;11746;50.876;4.246;2022-11-27T10:42:14;8.50;99.90
23156;DHT22;11746;50.876;4.246;2022-11-27T10:44:49;8.50;99.90
23156;DHT22;11746;50.876;4.246;2022-11-27T10:47:17;8.40;99.90
23156;DHT22;11746;50.876;4.246;2022-11-27T10:49:47;8.50;99.90
23156;DHT22;11746;50.876;4.246;2022-11-27T10:52:15;8.50;99.90
23156;DHT22;11746;50.876;4.246;2022-11-27T10:54:43;8.50;99.90
23156;DHT22;11746;50.876;4.246;2022-11-27T10:57:17;8.60;99.90
23156;DHT22;11746;50.876;4.246;2022-11-27T11:02:36;8.60;99.90
23156;DHT22;11746;50.876;4.246;2022-11-27T11:05:18;8.60;99.90
23156;DHT22;11746;50.876;4.246;2022-11-27T11:08:24;8.50;99.90
23156;DHT22;11746;50.876;4.246;2022-11-27T11:10:59;8.60;99.90
23156;DHT22;11746;50.876;4.246;2022-11-27T11:13:46;8.50;99.90
23156;DHT22;11746;50.876;4.246;2022-11-27T11:16:19;8.50;99.90
23156;DHT22;11746;50.876;4.246;2022-11-27T11:18:51;8.60;99.90
23156;DHT22;11746;50.876;4.246;2022-11-27T11:24:20;8.80;99.90
23156;DHT22;11746;50.876;4.246;2022-11-27T11:26:50;8.80;99.90
23156;DHT22;11746;50.876;4.246;2022-11-27T11:29:27;9.00;99.90
23156;DHT22;11746;50.876;4.246;2022-11-27T11:31:55;8.90;99.90
23156;DHT22;11746;50.876;4.246;2022-11-27T11:34:25;8.90;99.90
23156;DHT22;11746;50.876;4.246;2022-11-27T11:37:04;9.00;99.90
23156;DHT22;11746;50.876;4.246;2022-11-27T11:39:41;9.00;99.90
23156;DHT22;11746;50.876;4.246;2022-11-27T11:42:24;9.00;99.90
23156;DHT22;11746;50.876;4.246;2022-11-27T11:45:02;9.00;99.90
23156;DHT22;11746;50.876;4.246;2022-11-27T11:47:28;9.00;99.90
23156;DHT22;11746;50.876;4.246;2022-11-27T11:49:55;9.00;99.90
23156;DHT22;11746;50.876;4.246;2022-11-27T11:52:48;9.00;99.90
23156;DHT22;11746;50.876;4.246;2022-11-27T11:55:24;9.20;99.90
23156;DHT22;11746;50.876;4.246;2022-11-27T12:00:19;8.90;99.90
23156;DHT22;11746;50.876;4.246;2022-11-27T12:08:35;9.10;99.90
23156;DHT22;11746;50.876;4.246;2022-11-27T12:11:14;9.10;99.90
23156;DHT22;11746;50.876;4.246;2022-11-27T12:16:30;9.10;99.90
23156;DHT22;11746;50.876;4.246;2022-11-27T12:26:58;8.90;99.90
23156;DHT22;11746;50.876;4.246;2022-11-27T12:32:26;9.00;99.90
23156;DHT22;11746;50.876;4.246;2022-11-27T12:45:32;9.00;99.90
23156;DHT22;11746;50.876;4.246;2022-11-27T12:48:21;9.10;99.90
23156;DHT22;11746;50.876;4.246;2022-11-27T12:51:03;8.90;99.90
23156;DHT22;11746;50.876;4.246;2022-11-27T12:53:51;9.10;99.90
23156;DHT22;11746;50.876;4.246;2022-11-27T12:56:24;9.00;99.90
23156;DHT22;11746;50.876;4.246;2022-11-27T12:59:00;9.00;99.90
23156;DHT22;11746;50.876;4.246;2022-11-27T13:01:34;9.00;99.90
23156;DHT22;11746;50.876;4.246;2022-11-27T13:06:54;9.10;99.90
23156;DHT22;11746;50.876;4.246;2022-11-27T13:12:12;9.20;99.90
23156;DHT22;11746;50.876;4.246;2022-11-27T13:14:42;9.10;99.90
23156;DHT22;11746;50.876;4.246;2022-11-27T13:17:11;9.10;99.90
23156;DHT22;11746;50.876;4.246;2022-11-27T13:19:47;9.10;99.90
23156;DHT22;11746;50.876;4.246;2022-11-27T13:22:21;9.10;99.90
23156;DHT22;11746;50.876;4.246;2022-11-27T13:24:53;9.10;99.90
23156;DHT22;11746;50.876;4.246;2022-11-27T13:27:23;9.10;99.90
23156;DHT22;11746;50.876;4.246;2022-11-27T13:29:59;9.00;99.90
23156;DHT22;11746;50.876;4.246;2022-11-27T13:32:36;9.00;99.90
23156;DHT22;11746;50.876;4.246;2022-11-27T13:35:05;9.00;99.90
23156;DHT22;11746;50.876;4.246;2022-11-27T13:37:42;9.00;99.90
23156;DHT22;11746;50.876;4.246;2022-11-27T13:40:21;9.10;99.90
23156;DHT22;11746;50.876;4.246;2022-11-27T13:42:50;9.00;99.90
23156;DHT22;11746;50.876;4.246;2022-11-27T13:45:25;9.10;99.90
23156;DHT22;11746;50.876;4.246;2022-11-27T13:47:53;9.10;99.90
23156;DHT22;11746;50.876;4.246;2022-11-27T13:50:21;9.20;99.90
23156;DHT22;11746;50.876;4.246;2022-11-27T13:52:59;9.20;99.90
23156;DHT22;11746;50.876;4.246;2022-11-27T13:55:39;9.20;99.90
23156;DHT22;11746;50.876;4.246;2022-11-27T13:58:06;9.20;99.90
23156;DHT22;11746;50.876;4.246;2022-11-27T14:00:43;9.20;99.90
23156;DHT22;11746;50.876;4.246;2022-11-27T14:03:24;9.10;99.90
23156;DHT22;11746;50.876;4.246;2022-11-27T14:05:53;9.20;99.90
23156;DHT22;11746;50.876;4.246;2022-11-27T14:11:01;9.20;99.90
23156;DHT22;11746;50.876;4.246;2022-11-27T14:18:52;9.20;99.90
23156;DHT22;11746;50.876;4.246;2022-11-27T14:26:52;9.30;99.90
23156;DHT22;11746;50.876;4.246;2022-11-27T14:29:23;9.30;99.90
23156;DHT22;11746;50.876;4.246;2022-11-27T14:31:57;9.30;99.90
23156;DHT22;11746;50.876;4.246;2022-11-27T14:34:33;9.20;99.90
23156;DHT22;11746;50.876;4.246;2022-11-27T14:37:01;9.30;99.90
23156;DHT22;11746;50.876;4.246;2022-11-27T14:39:29;9.20;99.90
23156;DHT22;11746;50.876;4.246;2022-11-27T14:42:01;9.30;99.90
23156;DHT22;11746;50.876;4.246;2022-11-27T14:44:30;9.30;99.90
23156;DHT22;11746;50.876;4.246;2022-11-27T14:47:00;9.40;99.90
23156;DHT22;11746;50.876;4.246;2022-11-27T14:49:28;9.40;99.90
23156;DHT22;11746;50.876;4.246;2022-11-27T14:52:02;9.30;99.90
23156;DHT22;11746;50.876;4.246;2022-11-27T14:54:34;9.30;99.90
23156;DHT22;11746;50.876;4.246;2022-11-27T14:57:04;9.20;99.90
23156;DHT22;11746;50.876;4.246;2022-11-27T14:59:32;9.20;99.90
23156;DHT22;11746;50.876;4.246;2022-11-27T15:04:38;9.30;99.90
23156;DHT22;11746;50.876;4.246;2022-11-27T15:07:11;9.30;99.90
23156;DHT22;11746;50.876;4.246;2022-11-27T15:09:45;9.20;99.90
23156;DHT22;11746;50.876;4.246;2022-11-27T15:12:24;9.20;99.90
23156;DHT22;11746;50.876;4.246;2022-11-27T15:17:28;9.30;99.90
23156;DHT22;11746;50.876;4.246;2022-11-27T15:19:56;9.30;99.90
23156;DHT22;11746;50.876;4.246;2022-11-27T15:22:22;9.40;99.90
23156;DHT22;11746;50.876;4.246;2022-11-27T15:25:04;9.30;99.90
23156;DHT22;11746;50.876;4.246;2022-11-27T15:27:31;9.30;99.90
23156;DHT22;11746;50.876;4.246;2022-11-27T15:30:00;9.20;99.90
23156;DHT22;11746;50.876;4.246;2022-11-27T15:35:31;9.20;99.90
23156;DHT22;11746;50.876;4.246;2022-11-27T15:38:09;9.20;99.90
23156;DHT22;11746;50.876;4.246;2022-11-27T15:40:38;9.10;99.90
23156;DHT22;11746;50.876;4.246;2022-11-27T15:43:13;9.20;99.90
23156;DHT22;11746;50.876;4.246;2022-11-27T15:45:39;9.20;99.90
23156;DHT22;11746;50.876;4.246;2022-11-27T15:48:14;9.00;99.90
23156;DHT22;11746;50.876;4.246;2022-11-27T15:50:39;9.00;99.90
23156;DHT22;11746;50.876;4.246;2022-11-27T15:53:08;9.10;99.90
23156;DHT22;11746;50.876;4.246;2022-11-27T15:55:34;9.20;99.90
23156;DHT22;11746;50.876;4.246;2022-11-27T15:57:59;9.20;99.90
23156;DHT22;11746;50.876;4.246;2022-11-27T16:00:28;9.20;99.90
23156;DHT22;11746;50.876;4.246;2022-11-27T16:02:54;9.20;99.90
23156;DHT22;11746;50.876;4.246;2022-11-27T16:05:22;9.20;99.90
23156;DHT22;11746;50.876;4.246;2022-11-27T16:07:48;9.10;99.90
23156;DHT22;11746;50.876;4.246;2022-11-27T16:10:17;9.10;99.90
23156;DHT22;11746;50.876;4.246;2022-11-27T16:12:45;9.10;99.90
23156;DHT22;11746;50.876;4.246;2022-11-27T16:15:11;9.00;99.90
23156;DHT22;11746;50.876;4.246;2022-11-27T16:17:38;9.00;99.90
23156;DHT22;11746;50.876;4.246;2022-11-27T16:20:04;9.00;99.90
23156;DHT22;11746;50.876;4.246;2022-11-27T16:22:33;9.20;99.90
23156;DHT22;11746;50.876;4.246;2022-11-27T16:25:01;9.30;99.90
23156;DHT22;11746;50.876;4.246;2022-11-27T16:27:29;9.20;99.90
23156;DHT22;11746;50.876;4.246;2022-11-27T16:29:58;9.20;99.90
23156;DHT22;11746;50.876;4.246;2022-11-27T16:32:26;9.20;99.90
23156;DHT22;11746;50.876;4.246;2022-11-27T16:34:54;9.00;99.90
23156;DHT22;11746;50.876;4.246;2022-11-27T16:37:20;9.10;99.90
23156;DHT22;11746;50.876;4.246;2022-11-27T16:39:46;9.10;99.90
23156;DHT22;11746;50.876;4.246;2022-11-27T16:42:12;8.90;99.90
23156;DHT22;11746;50.876;4.246;2022-11-27T16:44:38;9.00;99.90
23156;DHT22;11746;50.876;4.246;2022-11-27T16:47:04;8.90;99.90
23156;DHT22;11746;50.876;4.246;2022-11-27T16:49:30;9.00;99.90
23156;DHT22;11746;50.876;4.246;2022-11-27T16:51:56;9.00;99.90
23156;DHT22;11746;50.876;4.246;2022-11-27T16:54:22;9.00;99.90
23156;DHT22;11746;50.876;4.246;2022-11-27T16:56:48;9.10;99.90
23156;DHT22;11746;50.876;4.246;2022-11-27T16:59:14;9.00;99.90
23156;DHT22;11746;50.876;4.246;2022-11-27T17:01:40;9.00;99.90
23156;DHT22;11746;50.876;4.246;2022-11-27T17:04:07;9.00;99.90
23156;DHT22;11746;50.876;4.246;2022-11-27T17:06:35;8.90;99.90
23156;DHT22;11746;50.876;4.246;2022-11-27T17:09:05;8.80;99.90
23156;DHT22;11746;50.876;4.246;2022-11-27T17:11:35;8.90;99.90
23156;DHT22;11746;50.876;4.246;2022-11-27T17:14:04;9.00;99.90
23156;DHT22;11746;50.876;4.246;2022-11-27T17:16:31;9.00;99.90
23156;DHT22;11746;50.876;4.246;2022-11-27T17:18:58;9.00;99.90
23156;DHT22;11746;50.876;4.246;2022-11-27T17:21:32;8.90;99.90
23156;DHT22;11746;50.876;4.246;2022-11-27T17:24:07;8.90;99.90
23156;DHT22;11746;50.876;4.246;2022-11-27T17:26:35;8.90;99.90
23156;DHT22;11746;50.876;4.246;2022-11-27T17:29:11;8.90;99.90
23156;DHT22;11746;50.876;4.246;2022-11-27T17:31:37;8.90;99.90
23156;DHT22;11746;50.876;4.246;2022-11-27T17:34:04;9.00;99.90
23156;DHT22;11746;50.876;4.246;2022-11-27T17:36:31;8.90;99.90
23156;DHT22;11746;50.876;4.246;2022-11-27T17:39:00;8.90;99.90
23156;DHT22;11746;50.876;4.246;2022-11-27T17:41:26;8.90;99.90
23156;DHT22;11746;50.876;4.246;2022-11-27T17:43:58;8.90;99.90
23156;DHT22;11746;50.876;4.246;2022-11-27T17:46:26;9.00;99.90